sensor_id;sensor_type;location;lat;lon;timestamp;temperature;humidity
22337;DHT22;14992;50.844;4.418;2024-02-21T00:00:11;10.50;99.90
22337;DHT22;14992;50.844;4.418;2024-02-21T00:02:39;10.50;99.90
22337;DHT22;14992;50.844;4.418;2024-02-21T00:05:08;10.60;99.90
22337;DHT22;14992;50.844;4.418;2024-02-21T00:07:37;10.70;99.90
22337;DHT22;14992;50.844;4.418;2024-02-21T00:10:07;10.70;99.90
22337;DHT22;14992;50.844;4.418;2024-02-21T00:12:37;10.70;99.90
22337;DHT22;14992;50.844;4.418;2024-02-21T00:15:07;10.80;99.90
22337;DHT22;14992;50.844;4.418;2024-02-21T00:17:36;10.90;99.90
22337;DHT22;14992;50.844;4.418;2024-02-21T00:20:06;10.90;99.90
22337;DHT22;14992;50.844;4.418;2024-02-21T00:22:35;10.70;99.90
22337;DHT22;14992;50.844;4.418;2024-02-21T00:25:05;10.80;99.90
22337;DHT22;14992;50.844;4.418;2024-02-21T00:27:34;10.80;99.90
22337;DHT22;14992;50.844;4.418;2024-02-21T00:30:05;10.80;99.90
22337;DHT22;14992;50.844;4.418;2024-02-21T00:32:34;10.90;99.90
22337;DHT22;14992;50.844;4.418;2024-02-21T00:35:03;10.80;99.90
22337;DHT22;14992;50.844;4.418;2024-02-21T00:37:32;10.70;99.90
22337;DHT22;14992;50.844;4.418;2024-02-21T00:40:01;10.70;99.90
22337;DHT22;14992;50.844;4.418;2024-02-21T00:42:30;10.80;99.90
22337;DHT22;14992;50.844;4.418;2024-02-21T00:44:59;10.80;99.90
22337;DHT22;14992;50.844;4.418;2024-02-21T00:47:29;10.90;99.90
22337;DHT22;14992;50.844;4.418;2024-02-21T00:49:58;10.80;99.90
22337;DHT22;14992;50.844;4.418;2024-02-21T00:52:27;10.80;99.90
22337;DHT22;14992;50.844;4.418;2024-02-21T00:54:56;10.80;99.90
22337;DHT22;14992;50.844;4.418;2024-02-21T00:57:25;10.80;99.90
22337;DHT22;14992;50.844;4.418;2024-02-21T00:59:54;10.80;99.90
22337;DHT22;14992;50.844;4.418;2024-02-21T01:02:23;10.80;99.90
22337;DHT22;14992;50.844;4.418;2024-02-21T01:04:54;10.80;99.90
22337;DHT22;14992;50.844;4.418;2024-02-21T01:07:23;10.70;99.90
22337;DHT22;14992;50.844;4.418;2024-02-21T01:09:52;10.70;99.90
22337;DHT22;14992;50.844;4.418;2024-02-21T01:12:21;10.70;99.90
22337;DHT22;14992;50.844;4.418;2024-02-21T01:14:50;10.60;99.90
22337;DHT22;14992;50.844;4.418;2024-02-21T01:17:19;10.60;99.90
22337;DHT22;14992;50.844;4.418;2024-02-21T01:19:48;10.60;99.90
22337;DHT22;14992;50.844;4.418;2024-02-21T01:22:18;10.60;99.90
22337;DHT22;14992;50.844;4.418;2024-02-21T01:24:47;10.60;99.90
22337;DHT22;14992;50.844;4.418;2024-02-21T01:27:16;10.70;99.90
22337;DHT22;14992;50.844;4.418;2024-02-21T01:29:45;10.60;99.90
22337;DHT22;14992;50.844;4.418;2024-02-21T01:32:16;10.60;99.90
22337;DHT22;14992;50.844;4.418;2024-02-21T01:34:45;10.60;99.90
22337;DHT22;14992;50.844;4.418;2024-02-21T01:37:15;10.60;99.90
22337;DHT22;14992;50.844;4.418;2024-02-21T01:39:45;10.50;99.90
22337;DHT22;14992;50.844;4.418;2024-02-21T01:42:14;10.40;99.90
22337;DHT22;14992;50.844;4.418;2024-02-21T01:44:43;10.40;99.90
22337;DHT22;14992;50.844;4.418;2024-02-21T01:47:12;10.20;99.90
22337;DHT22;14992;50.844;4.418;2024-02-21T01:49:43;10.30;99.90
22337;DHT22;14992;50.844;4.418;2024-02-21T01:52:14;10.30;99.90
22337;DHT22;14992;50.844;4.418;2024-02-21T01:54:45;10.30;99.90
22337;DHT22;14992;50.844;4.418;2024-02-21T01:57:15;10.30;99.90
22337;DHT22;14992;50.844;4.418;2024-02-21T01:59:44;10.20;99.90
22337;DHT22;14992;50.844;4.418;2024-02-21T02:02:13;10.20;99.90
22337;DHT22;14992;50.844;4.418;2024-02-21T02:04:45;10.30;99.90
22337;DHT22;14992;50.844;4.418;2024-02-21T02:07:14;10.40;99.90
22337;DHT22;14992;50.844;4.418;2024-02-21T02:09:44;10.40;99.90
22337;DHT22;14992;50.844;4.418;2024-02-21T02:12:13;10.40;99.90
22337;DHT22;14992;50.844;4.418;2024-02-21T02:14:42;10.40;99.90
22337;DHT22;14992;50.844;4.418;2024-02-21T02:17:11;10.40;99.90
22337;DHT22;14992;50.844;4.418;2024-02-21T02:19:40;10.50;99.90
22337;DHT22;14992;50.844;4.418;2024-02-21T02:22:11;10.50;99.90
22337;DHT22;14992;50.844;4.418;2024-02-21T02:24:45;10.40;99.90
22337;DHT22;14992;50.844;4.418;2024-02-21T02:27:14;10.50;99.90
22337;DHT22;14992;50.844;4.418;2024-02-21T02:29:43;10.50;99.90
22337;DHT22;14992;50.844;4.418;2024-02-21T02:32:12;10.50;99.90
22337;DHT22;14992;50.844;4.418;2024-02-21T02:34:41;10.50;99.90
22337;DHT22;14992;50.844;4.418;2024-02-21T02:37:10;10.60;99.90
22337;DHT22;14992;50.844;4.418;2024-02-21T02:39:38;10.60;99.90
22337;DHT22;14992;50.844;4.418;2024-02-21T02:42:09;10.60;99.90
22337;DHT22;14992;50.844;4.418;2024-02-21T02:44:37;10.60;99.90
22337;DHT22;14992;50.844;4.418;2024-02-21T02:47:06;10.60;99.90
22337;DHT22;14992;50.844;4.418;2024-02-21T02:49:35;10.60;99.90
22337;DHT22;14992;50.844;4.418;2024-02-21T02:52:04;10.60;99.90
22337;DHT22;14992;50.844;4.418;2024-02-21T02:54:33;10.60;99.90
22337;DHT22;14992;50.844;4.418;2024-02-21T02:57:02;10.60;99.90
22337;DHT22;14992;50.844;4.418;2024-02-21T02:59:34;10.60;99.90
22337;DHT22;14992;50.844;4.418;2024-02-21T03:02:03;10.60;99.90
22337;DHT22;14992;50.844;4.418;2024-02-21T03:04:32;10.60;99.90
22337;DHT22;14992;50.844;4.418;2024-02-21T03:07:01;10.70;99.90
22337;DHT22;14992;50.844;4.418;2024-02-21T03:09:29;10.70;99.90
22337;DHT22;14992;50.844;4.418;2024-02-21T03:11:58;10.70;99.90
22337;DHT22;14992;50.844;4.418;2024-02-21T03:14:30;10.70;99.90
22337;DHT22;14992;50.844;4.418;2024-02-21T03:17:01;10.60;99.90
22337;DHT22;14992;50.844;4.418;2024-02-21T03:19:30;10.60;99.90
22337;DHT22;14992;50.844;4.418;2024-02-21T03:21:59;10.70;99.90
22337;DHT22;14992;50.844;4.418;2024-02-21T03:24:28;10.70;99.90
22337;DHT22;14992;50.844;4.418;2024-02-21T03:26:59;10.70;99.90
22337;DHT22;14992;50.844;4.418;2024-02-21T03:29:28;10.70;99.90
22337;DHT22;14992;50.844;4.418;2024-02-21T03:31:57;10.90;99.90
22337;DHT22;14992;50.844;4.418;2024-02-21T03:34:27;10.90;99.90
22337;DHT22;14992;50.844;4.418;2024-02-21T03:36:57;11.00;99.90
22337;DHT22;14992;50.844;4.418;2024-02-21T03:39:26;11.00;99.90
22337;DHT22;14992;50.844;4.418;2024-02-21T03:41:55;10.90;99.90
22337;DHT22;14992;50.844;4.418;2024-02-21T03:44:24;10.90;99.90
22337;DHT22;14992;50.844;4.418;2024-02-21T03:46:52;10.80;99.90
22337;DHT22;14992;50.844;4.418;2024-02-21T03:49:22;10.90;99.90
22337;DHT22;14992;50.844;4.418;2024-02-21T03:51:52;10.90;99.90
22337;DHT22;14992;50.844;4.418;2024-02-21T03:54:21;10.90;99.90
22337;DHT22;14992;50.844;4.418;2024-02-21T03:56:50;10.90;99.90
22337;DHT22;14992;50.844;4.418;2024-02-21T03:59:19;10.80;99.90
22337;DHT22;14992;50.844;4.418;2024-02-21T04:01:51;10.70;99.90
22337;DHT22;14992;50.844;4.418;2024-02-21T04:04:21;10.70;99.90
22337;DHT22;14992;50.844;4.418;2024-02-21T04:06:52;10.70;99.90
22337;DHT22;14992;50.844;4.418;2024-02-21T04:09:21;10.60;99.90
22337;DHT22;14992;50.844;4.418;2024-02-21T04:11:50;10.70;99.90
22337;DHT22;14992;50.844;4.418;2024-02-21T04:14:19;10.70;99.90
22337;DHT22;14992;50.844;4.418;2024-02-21T04:16:48;10.70;99.90
22337;DHT22;14992;50.844;4.418;2024-02-21T04:19:17;10.80;99.90
22337;DHT22;14992;50.844;4.418;2024-02-21T04:21:46;10.70;99.90
22337;DHT22;14992;50.844;4.418;2024-02-21T04:24:16;10.70;99.90
22337;DHT22;14992;50.844;4.418;2024-02-21T04:26:45;10.70;99.90
22337;DHT22;14992;50.844;4.418;2024-02-21T04:29:14;10.70;99.90
22337;DHT22;14992;50.844;4.418;2024-02-21T04:31:43;10.70;99.90
22337;DHT22;14992;50.844;4.418;2024-02-21T04:34:13;10.70;99.90
22337;DHT22;14992;50.844;4.418;2024-02-21T04:36:42;10.60;99.90
22337;DHT22;14992;50.844;4.418;2024-02-21T04:39:11;10.60;99.90
22337;DHT22;14992;50.844;4.418;2024-02-21T04:41:41;10.60;99.90
22337;DHT22;14992;50.844;4.418;2024-02-21T04:44:10;10.70;99.90
22337;DHT22;14992;50.844;4.418;2024-02-21T04:46:42;10.70;99.90
22337;DHT22;14992;50.844;4.418;2024-02-21T04:49:11;10.70;99.90
22337;DHT22;14992;50.844;4.418;2024-02-21T04:51:40;10.70;99.90
22337;DHT22;14992;50.844;4.418;2024-02-21T04:54:09;10.70;99.90
22337;DHT22;14992;50.844;4.418;2024-02-21T04:56:38;10.70;99.90
22337;DHT22;14992;50.844;4.418;2024-02-21T04:59:08;10.70;99.90
22337;DHT22;14992;50.844;4.418;2024-02-21T05:01:37;10.60;99.90
22337;DHT22;14992;50.844;4.418;2024-02-21T05:04:06;10.70;99.90
22337;DHT22;14992;50.844;4.418;2024-02-21T05:06:37;10.70;99.90
22337;DHT22;14992;50.844;4.418;2024-02-21T05:09:06;10.90;99.90
22337;DHT22;14992;50.844;4.418;2024-02-21T05:11:38;10.90;99.90
22337;DHT22;14992;50.844;4.418;2024-02-21T05:14:08;11.00;99.90
22337;DHT22;14992;50.844;4.418;2024-02-21T05:16:39;11.00;99.90
22337;DHT22;14992;50.844;4.418;2024-02-21T05:19:08;11.00;99.90
22337;DHT22;14992;50.844;4.418;2024-02-21T05:21:37;10.90;99.90
22337;DHT22;14992;50.844;4.418;2024-02-21T05:24:06;10.90;99.90
22337;DHT22;14992;50.844;4.418;2024-02-21T05:26:35;11.00;99.90
22337;DHT22;14992;50.844;4.418;2024-02-21T05:29:04;11.00;99.90
22337;DHT22;14992;50.844;4.418;2024-02-21T05:31:55;11.00;99.90
22337;DHT22;14992;50.844;4.418;2024-02-21T05:34:26;10.70;99.90
22337;DHT22;14992;50.844;4.418;2024-02-21T05:36:55;10.70;99.90
22337;DHT22;14992;50.844;4.418;2024-02-21T05:39:25;10.80;99.90
22337;DHT22;14992;50.844;4.418;2024-02-21T05:41:54;10.80;99.90
22337;DHT22;14992;50.844;4.418;2024-02-21T05:44:23;10.80;99.90
22337;DHT22;14992;50.844;4.418;2024-02-21T05:46:53;10.80;99.90
22337;DHT22;14992;50.844;4.418;2024-02-21T05:49:22;10.80;99.90
22337;DHT22;14992;50.844;4.418;2024-02-21T05:51:52;10.80;99.90
22337;DHT22;14992;50.844;4.418;2024-02-21T05:54:21;10.70;99.90
22337;DHT22;14992;50.844;4.418;2024-02-21T05:56:50;10.70;99.90
22337;DHT22;14992;50.844;4.418;2024-02-21T05:59:21;10.80;99.90
22337;DHT22;14992;50.844;4.418;2024-02-21T06:01:56;10.80;99.90
22337;DHT22;14992;50.844;4.418;2024-02-21T06:04:26;10.80;99.90
22337;DHT22;14992;50.844;4.418;2024-02-21T06:06:55;10.80;99.90
22337;DHT22;14992;50.844;4.418;2024-02-21T06:09:24;10.80;99.90
22337;DHT22;14992;50.844;4.418;2024-02-21T06:11:54;10.80;99.90
22337;DHT22;14992;50.844;4.418;2024-02-21T06:14:23;10.80;99.90
22337;DHT22;14992;50.844;4.418;2024-02-21T06:16:51;10.80;99.90
22337;DHT22;14992;50.844;4.418;2024-02-21T06:19:22;10.70;99.90
22337;DHT22;14992;50.844;4.418;2024-02-21T06:21:51;10.60;99.90
22337;DHT22;14992;50.844;4.418;2024-02-21T06:24:21;10.70;99.90
22337;DHT22;14992;50.844;4.418;2024-02-21T06:26:50;10.70;99.90
22337;DHT22;14992;50.844;4.418;2024-02-21T06:29:20;10.70;99.90
22337;DHT22;14992;50.844;4.418;2024-02-21T06:31:49;10.70;99.90
22337;DHT22;14992;50.844;4.418;2024-02-21T06:34:17;10.60;99.90
22337;DHT22;14992;50.844;4.418;2024-02-21T06:36:48;10.70;99.90
22337;DHT22;14992;50.844;4.418;2024-02-21T06:39:17;10.70;99.90
22337;DHT22;14992;50.844;4.418;2024-02-21T06:41:46;10.60;99.90
22337;DHT22;14992;50.844;4.418;2024-02-21T06:44:15;10.60;99.90
22337;DHT22;14992;50.844;4.418;2024-02-21T06:46:44;10.60;99.90
22337;DHT22;14992;50.844;4.418;2024-02-21T06:49:13;10.60;99.90
22337;DHT22;14992;50.844;4.418;2024-02-21T06:51:44;10.60;99.90
22337;DHT22;14992;50.844;4.418;2024-02-21T06:54:14;10.70;99.90
22337;DHT22;14992;50.844;4.418;2024-02-21T06:56:42;10.70;99.90
22337;DHT22;14992;50.844;4.418;2024-02-21T06:59:11;10.50;99.90
22337;DHT22;14992;50.844;4.418;2024-02-21T07:01:45;10.50;99.90
22337;DHT22;14992;50.844;4.418;2024-02-21T07:04:14;10.40;99.90
22337;DHT22;14992;50.844;4.418;2024-02-21T07:06:46;10.40;99.90
22337;DHT22;14992;50.844;4.418;2024-02-21T07:09:17;10.20;99.90
22337;DHT22;14992;50.844;4.418;2024-02-21T07:11:45;10.30;99.90
22337;DHT22;14992;50.844;4.418;2024-02-21T07:14:14;10.30;99.90
22337;DHT22;14992;50.844;4.418;2024-02-21T07:16:43;10.30;99.90
22337;DHT22;14992;50.844;4.418;2024-02-21T07:19:12;10.30;99.90
22337;DHT22;14992;50.844;4.418;2024-02-21T07:21:42;10.40;99.90
22337;DHT22;14992;50.844;4.418;2024-02-21T07:24:11;10.40;99.90
22337;DHT22;14992;50.844;4.418;2024-02-21T07:26:42;10.50;99.90
22337;DHT22;14992;50.844;4.418;2024-02-21T07:29:11;10.60;99.90
22337;DHT22;14992;50.844;4.418;2024-02-21T07:31:42;10.50;99.90
22337;DHT22;14992;50.844;4.418;2024-02-21T07:34:11;10.50;99.90
22337;DHT22;14992;50.844;4.418;2024-02-21T07:36:40;10.60;99.90
22337;DHT22;14992;50.844;4.418;2024-02-21T07:39:10;10.50;99.90
22337;DHT22;14992;50.844;4.418;2024-02-21T07:41:39;10.70;99.90
22337;DHT22;14992;50.844;4.418;2024-02-21T07:44:11;10.70;99.90
22337;DHT22;14992;50.844;4.418;2024-02-21T07:46:40;10.70;99.90
22337;DHT22;14992;50.844;4.418;2024-02-21T07:49:09;10.70;99.90
22337;DHT22;14992;50.844;4.418;2024-02-21T07:51:38;10.80;99.90
22337;DHT22;14992;50.844;4.418;2024-02-21T07:54:06;10.90;99.90
22337;DHT22;14992;50.844;4.418;2024-02-21T07:56:43;10.90;99.90
22337;DHT22;14992;50.844;4.418;2024-02-21T07:59:13;10.90;99.90
22337;DHT22;14992;50.844;4.418;2024-02-21T08:01:42;10.90;99.90
22337;DHT22;14992;50.844;4.418;2024-02-21T08:04:12;10.90;99.90
22337;DHT22;14992;50.844;4.418;2024-02-21T08:06:42;10.90;99.90
22337;DHT22;14992;50.844;4.418;2024-02-21T08:09:12;10.90;99.90
22337;DHT22;14992;50.844;4.418;2024-02-21T08:11:41;11.00;99.90
22337;DHT22;14992;50.844;4.418;2024-02-21T08:14:10;11.00;99.90
22337;DHT22;14992;50.844;4.418;2024-02-21T08:16:41;11.00;99.90
22337;DHT22;14992;50.844;4.418;2024-02-21T08:19:11;10.90;99.90
22337;DHT22;14992;50.844;4.418;2024-02-21T08:21:40;10.70;99.90
22337;DHT22;14992;50.844;4.418;2024-02-21T08:24:09;10.80;99.90
22337;DHT22;14992;50.844;4.418;2024-02-21T08:26:40;10.90;99.90
22337;DHT22;14992;50.844;4.418;2024-02-21T08:29:09;10.90;99.90
22337;DHT22;14992;50.844;4.418;2024-02-21T08:31:38;10.90;99.90
22337;DHT22;14992;50.844;4.418;2024-02-21T08:34:08;10.90;99.90
22337;DHT22;14992;50.844;4.418;2024-02-21T08:36:37;10.90;99.90
22337;DHT22;14992;50.844;4.418;2024-02-21T08:39:06;10.90;99.90
22337;DHT22;14992;50.844;4.418;2024-02-21T08:41:37;11.00;99.90
22337;DHT22;14992;50.844;4.418;2024-02-21T08:44:23;11.00;99.90
22337;DHT22;14992;50.844;4.418;2024-02-21T08:46:54;11.00;99.90
22337;DHT22;14992;50.844;4.418;2024-02-21T08:49:26;11.00;99.90
22337;DHT22;14992;50.844;4.418;2024-02-21T08:52:01;11.00;99.90
22337;DHT22;14992;50.844;4.418;2024-02-21T08:54:31;11.00;99.90
22337;DHT22;14992;50.844;4.418;2024-02-21T08:57:01;10.90;99.90
22337;DHT22;14992;50.844;4.418;2024-02-21T08:59:31;11.00;99.90
22337;DHT22;14992;50.844;4.418;2024-02-21T09:02:00;11.20;99.90
22337;DHT22;14992;50.844;4.418;2024-02-21T09:04:32;11.30;99.90
22337;DHT22;14992;50.844;4.418;2024-02-21T09:07:01;11.40;99.90
22337;DHT22;14992;50.844;4.418;2024-02-21T09:09:30;11.40;99.90
22337;DHT22;14992;50.844;4.418;2024-02-21T09:12:00;11.40;99.90
22337;DHT22;14992;50.844;4.418;2024-02-21T09:14:33;11.40;99.90
22337;DHT22;14992;50.844;4.418;2024-02-21T09:17:02;11.40;99.90
22337;DHT22;14992;50.844;4.418;2024-02-21T09:19:33;11.20;99.90
22337;DHT22;14992;50.844;4.418;2024-02-21T09:22:02;11.30;99.90
22337;DHT22;14992;50.844;4.418;2024-02-21T09:24:31;11.30;99.90
22337;DHT22;14992;50.844;4.418;2024-02-21T09:27:00;11.30;99.90
22337;DHT22;14992;50.844;4.418;2024-02-21T09:29:28;11.30;99.90
22337;DHT22;14992;50.844;4.418;2024-02-21T09:31:58;11.30;99.90
22337;DHT22;14992;50.844;4.418;2024-02-21T09:34:27;11.40;99.90
22337;DHT22;14992;50.844;4.418;2024-02-21T09:36:58;11.60;99.90
22337;DHT22;14992;50.844;4.418;2024-02-21T09:39:26;11.70;99.90
22337;DHT22;14992;50.844;4.418;2024-02-21T09:41:59;11.80;99.90
22337;DHT22;14992;50.844;4.418;2024-02-21T09:44:36;11.80;99.90
22337;DHT22;14992;50.844;4.418;2024-02-21T09:47:10;11.90;99.90
22337;DHT22;14992;50.844;4.418;2024-02-21T09:49:42;11.80;99.90
22337;DHT22;14992;50.844;4.418;2024-02-21T09:52:15;11.80;99.90
22337;DHT22;14992;50.844;4.418;2024-02-21T09:54:45;12.00;99.90
22337;DHT22;14992;50.844;4.418;2024-02-21T09:57:16;11.90;99.90
22337;DHT22;14992;50.844;4.418;2024-02-21T09:59:46;12.00;99.90
22337;DHT22;14992;50.844;4.418;2024-02-21T10:02:15;12.00;99.90
22337;DHT22;14992;50.844;4.418;2024-02-21T10:04:44;12.00;99.90
22337;DHT22;14992;50.844;4.418;2024-02-21T10:07:15;12.20;99.90
22337;DHT22;14992;50.844;4.418;2024-02-21T10:09:44;12.30;99.90
22337;DHT22;14992;50.844;4.418;2024-02-21T10:12:15;12.20;99.90
22337;DHT22;14992;50.844;4.418;2024-02-21T10:14:46;12.30;99.90
22337;DHT22;14992;50.844;4.418;2024-02-21T10:17:16;12.20;99.90
22337;DHT22;14992;50.844;4.418;2024-02-21T10:19:47;12.20;99.90
22337;DHT22;14992;50.844;4.418;2024-02-21T10:22:17;12.10;99.90
22337;DHT22;14992;50.844;4.418;2024-02-21T10:24:48;12.10;99.90
22337;DHT22;14992;50.844;4.418;2024-02-21T10:27:17;12.10;99.90
22337;DHT22;14992;50.844;4.418;2024-02-21T10:29:49;12.30;99.90
22337;DHT22;14992;50.844;4.418;2024-02-21T10:32:19;12.30;99.90
22337;DHT22;14992;50.844;4.418;2024-02-21T10:34:48;12.10;99.90
22337;DHT22;14992;50.844;4.418;2024-02-21T10:37:21;12.40;99.90
22337;DHT22;14992;50.844;4.418;2024-02-21T10:39:50;12.40;99.90
22337;DHT22;14992;50.844;4.418;2024-02-21T10:42:21;12.50;99.90
22337;DHT22;14992;50.844;4.418;2024-02-21T10:44:51;12.30;99.90
22337;DHT22;14992;50.844;4.418;2024-02-21T10:47:22;12.40;99.90
22337;DHT22;14992;50.844;4.418;2024-02-21T10:50:03;12.50;99.90
22337;DHT22;14992;50.844;4.418;2024-02-21T10:52:46;12.40;99.90
22337;DHT22;14992;50.844;4.418;2024-02-21T10:55:20;12.30;99.90
22337;DHT22;14992;50.844;4.418;2024-02-21T10:57:51;12.30;99.90
22337;DHT22;14992;50.844;4.418;2024-02-21T11:00:21;12.50;99.90
22337;DHT22;14992;50.844;4.418;2024-02-21T11:02:54;12.70;99.90
22337;DHT22;14992;50.844;4.418;2024-02-21T11:05:24;12.70;99.90
22337;DHT22;14992;50.844;4.418;2024-02-21T11:07:57;12.80;99.90
22337;DHT22;14992;50.844;4.418;2024-02-21T11:10:27;12.90;99.90
22337;DHT22;14992;50.844;4.418;2024-02-21T11:13:06;12.90;99.90
22337;DHT22;14992;50.844;4.418;2024-02-21T11:15:35;12.90;99.90
22337;DHT22;14992;50.844;4.418;2024-02-21T11:18:04;12.90;99.90
22337;DHT22;14992;50.844;4.418;2024-02-21T11:20:35;13.00;99.90
22337;DHT22;14992;50.844;4.418;2024-02-21T11:23:06;12.80;99.90
22337;DHT22;14992;50.844;4.418;2024-02-21T11:25:35;12.70;99.90
22337;DHT22;14992;50.844;4.418;2024-02-21T11:28:05;12.70;99.90
22337;DHT22;14992;50.844;4.418;2024-02-21T11:30:35;12.60;99.90
22337;DHT22;14992;50.844;4.418;2024-02-21T11:33:06;12.60;99.90
22337;DHT22;14992;50.844;4.418;2024-02-21T11:35:36;12.50;99.90
22337;DHT22;14992;50.844;4.418;2024-02-21T11:38:10;12.40;99.90
22337;DHT22;14992;50.844;4.418;2024-02-21T11:40:45;12.50;99.90
22337;DHT22;14992;50.844;4.418;2024-02-21T11:43:15;12.50;99.90
22337;DHT22;14992;50.844;4.418;2024-02-21T11:45:44;12.40;99.90
22337;DHT22;14992;50.844;4.418;2024-02-21T11:48:14;12.40;99.90
22337;DHT22;14992;50.844;4.418;2024-02-21T11:50:53;12.30;99.90
22337;DHT22;14992;50.844;4.418;2024-02-21T11:53:24;12.30;99.90
22337;DHT22;14992;50.844;4.418;2024-02-21T11:55:59;12.30;99.90
22337;DHT22;14992;50.844;4.418;2024-02-21T11:58:28;12.40;99.90
22337;DHT22;14992;50.844;4.418;2024-02-21T12:00:58;12.30;99.90
22337;DHT22;14992;50.844;4.418;2024-02-21T12:03:27;12.30;99.90
22337;DHT22;14992;50.844;4.418;2024-02-21T12:05:56;12.20;99.90
22337;DHT22;14992;50.844;4.418;2024-02-21T12:08:28;12.00;99.90
22337;DHT22;14992;50.844;4.418;2024-02-21T12:11:17;12.20;99.90
22337;DHT22;14992;50.844;4.418;2024-02-21T12:13:47;12.30;99.90
22337;DHT22;14992;50.844;4.418;2024-02-21T12:16:16;12.20;99.90
22337;DHT22;14992;50.844;4.418;2024-02-21T12:18:47;12.30;99.90
22337;DHT22;14992;50.844;4.418;2024-02-21T12:21:16;12.10;99.90
22337;DHT22;14992;50.844;4.418;2024-02-21T12:23:46;12.00;99.90
22337;DHT22;14992;50.844;4.418;2024-02-21T12:26:15;11.90;99.90
22337;DHT22;14992;50.844;4.418;2024-02-21T12:28:44;11.90;99.90
22337;DHT22;14992;50.844;4.418;2024-02-21T12:31:13;11.80;99.90
22337;DHT22;14992;50.844;4.418;2024-02-21T12:33:43;11.90;99.90
22337;DHT22;14992;50.844;4.418;2024-02-21T12:36:12;12.10;99.90
22337;DHT22;14992;50.844;4.418;2024-02-21T12:38:41;12.30;99.90
22337;DHT22;14992;50.844;4.418;2024-02-21T12:41:12;12.30;99.90
22337;DHT22;14992;50.844;4.418;2024-02-21T12:43:41;12.40;99.90
22337;DHT22;14992;50.844;4.418;2024-02-21T12:46:10;12.60;99.90
22337;DHT22;14992;50.844;4.418;2024-02-21T12:48:38;12.50;99.90
22337;DHT22;14992;50.844;4.418;2024-02-21T12:51:08;12.30;99.90
22337;DHT22;14992;50.844;4.418;2024-02-21T12:53:37;12.30;99.90
22337;DHT22;14992;50.844;4.418;2024-02-21T12:56:07;12.40;99.90
22337;DHT22;14992;50.844;4.418;2024-02-21T12:58:37;12.50;99.90
22337;DHT22;14992;50.844;4.418;2024-02-21T13:01:06;12.50;99.90
22337;DHT22;14992;50.844;4.418;2024-02-21T13:03:35;12.50;99.90
22337;DHT22;14992;50.844;4.418;2024-02-21T13:06:05;12.60;99.90
22337;DHT22;14992;50.844;4.418;2024-02-21T13:08:38;12.60;99.90
22337;DHT22;14992;50.844;4.418;2024-02-21T13:11:07;12.60;99.90
22337;DHT22;14992;50.844;4.418;2024-02-21T13:13:38;12.60;99.90
22337;DHT22;14992;50.844;4.418;2024-02-21T13:16:07;12.50;99.90
22337;DHT22;14992;50.844;4.418;2024-02-21T13:18:36;12.40;99.90
22337;DHT22;14992;50.844;4.418;2024-02-21T13:21:06;12.40;99.90
22337;DHT22;14992;50.844;4.418;2024-02-21T13:23:34;12.40;99.90
22337;DHT22;14992;50.844;4.418;2024-02-21T13:26:03;12.50;99.90
22337;DHT22;14992;50.844;4.418;2024-02-21T13:28:33;12.30;99.90
22337;DHT22;14992;50.844;4.418;2024-02-21T13:31:03;12.30;99.90
22337;DHT22;14992;50.844;4.418;2024-02-21T13:33:32;12.40;99.90
22337;DHT22;14992;50.844;4.418;2024-02-21T13:36:01;12.30;99.90
22337;DHT22;14992;50.844;4.418;2024-02-21T13:38:31;12.20;99.90
22337;DHT22;14992;50.844;4.418;2024-02-21T13:41:00;12.20;99.90
22337;DHT22;14992;50.844;4.418;2024-02-21T13:43:29;12.20;99.90
22337;DHT22;14992;50.844;4.418;2024-02-21T13:45:59;12.10;99.90
22337;DHT22;14992;50.844;4.418;2024-02-21T13:48:30;12.20;99.90
22337;DHT22;14992;50.844;4.418;2024-02-21T13:51:01;12.10;99.90
22337;DHT22;14992;50.844;4.418;2024-02-21T13:53:30;11.90;99.90
22337;DHT22;14992;50.844;4.418;2024-02-21T13:55:59;11.90;99.90
22337;DHT22;14992;50.844;4.418;2024-02-21T13:58:29;11.90;99.90
22337;DHT22;14992;50.844;4.418;2024-02-21T14:00:58;12.00;99.90
22337;DHT22;14992;50.844;4.418;2024-02-21T14:03:30;11.90;99.90
22337;DHT22;14992;50.844;4.418;2024-02-21T14:06:05;12.00;99.90
22337;DHT22;14992;50.844;4.418;2024-02-21T14:08:34;12.00;99.90
22337;DHT22;14992;50.844;4.418;2024-02-21T14:11:04;11.90;99.90
22337;DHT22;14992;50.844;4.418;2024-02-21T14:13:33;11.80;99.90
22337;DHT22;14992;50.844;4.418;2024-02-21T14:16:03;11.80;99.90
22337;DHT22;14992;50.844;4.418;2024-02-21T14:18:39;11.80;99.90
22337;DHT22;14992;50.844;4.418;2024-02-21T14:21:10;11.90;99.90
22337;DHT22;14992;50.844;4.418;2024-02-21T14:23:39;11.90;99.90
22337;DHT22;14992;50.844;4.418;2024-02-21T14:26:08;11.80;99.90
22337;DHT22;14992;50.844;4.418;2024-02-21T14:28:37;11.80;99.90
22337;DHT22;14992;50.844;4.418;2024-02-21T14:31:06;11.80;99.90
22337;DHT22;14992;50.844;4.418;2024-02-21T14:33:36;11.70;99.90
22337;DHT22;14992;50.844;4.418;2024-02-21T14:36:07;11.70;99.90
22337;DHT22;14992;50.844;4.418;2024-02-21T14:38:36;11.80;99.90
22337;DHT22;14992;50.844;4.418;2024-02-21T14:41:05;11.70;99.90
22337;DHT22;14992;50.844;4.418;2024-02-21T14:43:34;11.50;99.90
22337;DHT22;14992;50.844;4.418;2024-02-21T14:46:03;11.50;99.90
22337;DHT22;14992;50.844;4.418;2024-02-21T14:48:33;11.60;99.90
22337;DHT22;14992;50.844;4.418;2024-02-21T14:51:02;11.50;99.90
22337;DHT22;14992;50.844;4.418;2024-02-21T14:53:32;11.50;99.90
22337;DHT22;14992;50.844;4.418;2024-02-21T14:56:01;11.60;99.90
22337;DHT22;14992;50.844;4.418;2024-02-21T14:58:30;11.60;99.90
22337;DHT22;14992;50.844;4.418;2024-02-21T15:00:59;11.50;99.90
22337;DHT22;14992;50.844;4.418;2024-02-21T15:03:28;11.30;99.90
22337;DHT22;14992;50.844;4.418;2024-02-21T15:05:57;11.20;99.90
22337;DHT22;14992;50.844;4.418;2024-02-21T15:08:27;11.20;99.90
22337;DHT22;14992;50.844;4.418;2024-02-21T15:10:57;11.20;99.90
22337;DHT22;14992;50.844;4.418;2024-02-21T15:13:26;11.30;99.90
22337;DHT22;14992;50.844;4.418;2024-02-21T15:15:55;11.40;99.90
22337;DHT22;14992;50.844;4.418;2024-02-21T15:18:24;11.30;99.90
22337;DHT22;14992;50.844;4.418;2024-02-21T15:20:53;11.20;99.90
22337;DHT22;14992;50.844;4.418;2024-02-21T15:23:22;11.20;99.90
22337;DHT22;14992;50.844;4.418;2024-02-21T15:25:56;11.20;99.90
22337;DHT22;14992;50.844;4.418;2024-02-21T15:28:27;11.00;99.90
22337;DHT22;14992;50.844;4.418;2024-02-21T15:30:56;10.90;99.90
22337;DHT22;14992;50.844;4.418;2024-02-21T15:33:25;10.90;99.90
22337;DHT22;14992;50.844;4.418;2024-02-21T15:35:58;10.90;99.90
22337;DHT22;14992;50.844;4.418;2024-02-21T15:38:27;10.80;99.90
22337;DHT22;14992;50.844;4.418;2024-02-21T15:40:57;10.80;99.90
22337;DHT22;14992;50.844;4.418;2024-02-21T15:43:26;10.80;99.90
22337;DHT22;14992;50.844;4.418;2024-02-21T15:45:55;10.80;99.90